sensor_id;sensor_type;location;lat;lon;timestamp;temperature;humidity
10300;DHT22;5195;48.562;9.192;2023-07-24T00:00:27;24.80;39.60
10300;DHT22;5195;48.562;9.192;2023-07-24T00:02:52;24.90;39.40
10300;DHT22;5195;48.562;9.192;2023-07-24T00:05:18;24.70;39.70
10300;DHT22;5195;48.562;9.192;2023-07-24T00:07:43;24.60;40.20
10300;DHT22;5195;48.562;9.192;2023-07-24T00:10:09;24.50;40.00
10300;DHT22;5195;48.562;9.192;2023-07-24T00:12:35;24.50;40.00
10300;DHT22;5195;48.562;9.192;2023-07-24T00:15:00;24.20;39.90
10300;DHT22;5195;48.562;9.192;2023-07-24T00:17:26;23.90;40.00
10300;DHT22;5195;48.562;9.192;2023-07-24T00:19:51;24.00;40.40
10300;DHT22;5195;48.562;9.192;2023-07-24T00:22:17;23.90;40.20
10300;DHT22;5195;48.562;9.192;2023-07-24T00:24:42;24.00;40.30
10300;DHT22;5195;48.562;9.192;2023-07-24T00:27:08;23.90;40.40
10300;DHT22;5195;48.562;9.192;2023-07-24T00:29:34;23.70;40.30
10300;DHT22;5195;48.562;9.192;2023-07-24T00:31:59;23.40;40.50
10300;DHT22;5195;48.562;9.192;2023-07-24T00:34:25;23.20;40.80
10300;DHT22;5195;48.562;9.192;2023-07-24T00:36:50;23.10;41.10
10300;DHT22;5195;48.562;9.192;2023-07-24T00:39:16;22.90;41.30
10300;DHT22;5195;48.562;9.192;2023-07-24T00:41:42;22.80;41.40
10300;DHT22;5195;48.562;9.192;2023-07-24T00:44:07;22.70;41.40
10300;DHT22;5195;48.562;9.192;2023-07-24T00:46:33;22.70;41.50
10300;DHT22;5195;48.562;9.192;2023-07-24T00:48:58;23.00;42.00
10300;DHT22;5195;48.562;9.192;2023-07-24T00:51:24;23.40;41.40
10300;DHT22;5195;48.562;9.192;2023-07-24T00:53:49;23.80;41.20
10300;DHT22;5195;48.562;9.192;2023-07-24T00:56:15;23.70;40.90
10300;DHT22;5195;48.562;9.192;2023-07-24T00:58:40;23.70;41.00
10300;DHT22;5195;48.562;9.192;2023-07-24T01:01:07;23.60;40.90
10300;DHT22;5195;48.562;9.192;2023-07-24T01:03:34;23.60;40.80
10300;DHT22;5195;48.562;9.192;2023-07-24T01:05:58;23.50;40.80
10300;DHT22;5195;48.562;9.192;2023-07-24T01:08:24;23.50;41.00
10300;DHT22;5195;48.562;9.192;2023-07-24T01:10:49;23.70;40.90
10300;DHT22;5195;48.562;9.192;2023-07-24T01:13:15;23.90;40.70
10300;DHT22;5195;48.562;9.192;2023-07-24T01:15:45;23.60;40.60
10300;DHT22;5195;48.562;9.192;2023-07-24T01:18:10;23.60;40.80
10300;DHT22;5195;48.562;9.192;2023-07-24T01:20:47;23.30;40.70
10300;DHT22;5195;48.562;9.192;2023-07-24T01:26:04;23.10;41.00
10300;DHT22;5195;48.562;9.192;2023-07-24T01:28:30;23.40;40.80
10300;DHT22;5195;48.562;9.192;2023-07-24T01:30:56;23.50;39.90
10300;DHT22;5195;48.562;9.192;2023-07-24T01:33:21;23.70;39.70
10300;DHT22;5195;48.562;9.192;2023-07-24T01:35:50;23.80;39.70
10300;DHT22;5195;48.562;9.192;2023-07-24T01:38:15;23.50;39.70
10300;DHT22;5195;48.562;9.192;2023-07-24T01:40:41;23.20;40.20
10300;DHT22;5195;48.562;9.192;2023-07-24T01:43:06;23.20;41.00
10300;DHT22;5195;48.562;9.192;2023-07-24T01:45:32;23.00;40.80
10300;DHT22;5195;48.562;9.192;2023-07-24T01:47:58;22.80;41.10
10300;DHT22;5195;48.562;9.192;2023-07-24T01:50:23;22.60;41.50
10300;DHT22;5195;48.562;9.192;2023-07-24T01:52:49;22.40;41.70
10300;DHT22;5195;48.562;9.192;2023-07-24T01:55:14;22.60;42.40
10300;DHT22;5195;48.562;9.192;2023-07-24T01:57:40;22.70;42.10
10300;DHT22;5195;48.562;9.192;2023-07-24T02:00:06;22.60;42.20
10300;DHT22;5195;48.562;9.192;2023-07-24T02:02:31;22.70;42.50
10300;DHT22;5195;48.562;9.192;2023-07-24T02:04:57;23.00;42.00
10300;DHT22;5195;48.562;9.192;2023-07-24T02:07:22;22.90;41.70
10300;DHT22;5195;48.562;9.192;2023-07-24T02:09:48;22.60;41.90
10300;DHT22;5195;48.562;9.192;2023-07-24T02:12:14;22.70;41.90
10300;DHT22;5195;48.562;9.192;2023-07-24T02:14:39;22.60;41.80
10300;DHT22;5195;48.562;9.192;2023-07-24T02:17:05;22.70;42.10
10300;DHT22;5195;48.562;9.192;2023-07-24T02:19:30;22.70;41.90
10300;DHT22;5195;48.562;9.192;2023-07-24T02:21:56;22.70;41.90
10300;DHT22;5195;48.562;9.192;2023-07-24T02:24:21;23.00;41.80
10300;DHT22;5195;48.562;9.192;2023-07-24T02:26:47;22.80;41.60
10300;DHT22;5195;48.562;9.192;2023-07-24T02:29:12;22.80;42.00
10300;DHT22;5195;48.562;9.192;2023-07-24T02:31:38;22.60;42.00
10300;DHT22;5195;48.562;9.192;2023-07-24T02:34:04;22.20;42.30
10300;DHT22;5195;48.562;9.192;2023-07-24T02:36:29;22.30;42.90
10300;DHT22;5195;48.562;9.192;2023-07-24T02:38:55;22.20;42.70
10300;DHT22;5195;48.562;9.192;2023-07-24T02:41:20;21.90;42.90
10300;DHT22;5195;48.562;9.192;2023-07-24T02:43:46;22.00;43.30
10300;DHT22;5195;48.562;9.192;2023-07-24T02:46:11;22.00;43.30
10300;DHT22;5195;48.562;9.192;2023-07-24T02:48:37;21.80;43.40
10300;DHT22;5195;48.562;9.192;2023-07-24T02:51:03;21.50;43.50
10300;DHT22;5195;48.562;9.192;2023-07-24T02:53:28;21.30;43.70
10300;DHT22;5195;48.562;9.192;2023-07-24T02:55:54;21.60;44.30
10300;DHT22;5195;48.562;9.192;2023-07-24T02:58:19;21.90;43.80
10300;DHT22;5195;48.562;9.192;2023-07-24T03:00:45;21.80;43.50
10300;DHT22;5195;48.562;9.192;2023-07-24T03:03:10;21.90;43.80
10300;DHT22;5195;48.562;9.192;2023-07-24T03:05:36;21.80;43.60
10300;DHT22;5195;48.562;9.192;2023-07-24T03:08:02;21.50;43.90
10300;DHT22;5195;48.562;9.192;2023-07-24T03:10:27;21.30;44.10
10300;DHT22;5195;48.562;9.192;2023-07-24T03:12:53;21.20;44.20
10300;DHT22;5195;48.562;9.192;2023-07-24T03:15:19;21.00;44.40
10300;DHT22;5195;48.562;9.192;2023-07-24T03:17:44;20.90;44.60
10300;DHT22;5195;48.562;9.192;2023-07-24T03:20:12;21.20;45.20
10300;DHT22;5195;48.562;9.192;2023-07-24T03:22:35;21.30;44.80
10300;DHT22;5195;48.562;9.192;2023-07-24T03:25:02;21.10;44.70
10300;DHT22;5195;48.562;9.192;2023-07-24T03:27:28;21.40;45.10
10300;DHT22;5195;48.562;9.192;2023-07-24T03:29:53;21.30;44.70
10300;DHT22;5195;48.562;9.192;2023-07-24T03:32:19;21.50;45.00
10300;DHT22;5195;48.562;9.192;2023-07-24T03:34:44;21.80;44.70
10300;DHT22;5195;48.562;9.192;2023-07-24T03:37:10;21.90;44.30
10300;DHT22;5195;48.562;9.192;2023-07-24T03:39:35;21.80;44.30
10300;DHT22;5195;48.562;9.192;2023-07-24T03:42:01;21.80;44.60
10300;DHT22;5195;48.562;9.192;2023-07-24T03:44:27;21.60;44.50
10300;DHT22;5195;48.562;9.192;2023-07-24T03:46:52;21.30;44.80
10300;DHT22;5195;48.562;9.192;2023-07-24T03:49:18;21.40;45.30
10300;DHT22;5195;48.562;9.192;2023-07-24T03:51:43;21.70;44.90
10300;DHT22;5195;48.562;9.192;2023-07-24T03:54:09;21.60;44.60
10300;DHT22;5195;48.562;9.192;2023-07-24T03:56:34;21.80;44.80
10300;DHT22;5195;48.562;9.192;2023-07-24T03:59:00;22.00;44.40
10300;DHT22;5195;48.562;9.192;2023-07-24T04:01:27;22.30;44.20
10300;DHT22;5195;48.562;9.192;2023-07-24T04:03:53;22.20;44.10
10300;DHT22;5195;48.562;9.192;2023-07-24T04:06:18;22.30;44.20
10300;DHT22;5195;48.562;9.192;2023-07-24T04:08:44;22.60;44.00
10300;DHT22;5195;48.562;9.192;2023-07-24T04:11:10;22.50;43.90
10300;DHT22;5195;48.562;9.192;2023-07-24T04:13:36;22.50;44.20
10300;DHT22;5195;48.562;9.192;2023-07-24T04:16:02;22.40;44.10
10300;DHT22;5195;48.562;9.192;2023-07-24T04:18:27;22.10;44.20
10300;DHT22;5195;48.562;9.192;2023-07-24T04:20:53;22.20;44.60
10300;DHT22;5195;48.562;9.192;2023-07-24T04:23:18;22.20;44.50
10300;DHT22;5195;48.562;9.192;2023-07-24T04:25:44;22.30;44.60
10300;DHT22;5195;48.562;9.192;2023-07-24T04:28:09;22.30;44.50
10300;DHT22;5195;48.562;9.192;2023-07-24T04:30:35;22.10;44.20
10300;DHT22;5195;48.562;9.192;2023-07-24T04:33:02;22.30;45.00
10300;DHT22;5195;48.562;9.192;2023-07-24T04:35:27;22.30;44.80
10300;DHT22;5195;48.562;9.192;2023-07-24T04:37:53;22.20;45.00
10300;DHT22;5195;48.562;9.192;2023-07-24T04:40:19;22.10;45.20
10300;DHT22;5195;48.562;9.192;2023-07-24T04:42:45;22.00;45.30
10300;DHT22;5195;48.562;9.192;2023-07-24T04:45:12;22.30;45.50
10300;DHT22;5195;48.562;9.192;2023-07-24T04:47:42;22.40;45.20
10300;DHT22;5195;48.562;9.192;2023-07-24T04:50:10;22.60;44.90
10300;DHT22;5195;48.562;9.192;2023-07-24T04:52:38;23.00;44.20
10300;DHT22;5195;48.562;9.192;2023-07-24T04:55:04;23.00;44.10
10300;DHT22;5195;48.562;9.192;2023-07-24T04:57:29;22.80;44.30
10300;DHT22;5195;48.562;9.192;2023-07-24T04:59:55;22.70;44.80
10300;DHT22;5195;48.562;9.192;2023-07-24T05:02:20;22.80;46.00
10300;DHT22;5195;48.562;9.192;2023-07-24T05:04:47;22.80;45.60
10300;DHT22;5195;48.562;9.192;2023-07-24T05:07:13;22.90;45.70
10300;DHT22;5195;48.562;9.192;2023-07-24T05:09:38;22.90;45.40
10300;DHT22;5195;48.562;9.192;2023-07-24T05:12:04;22.90;45.30
10300;DHT22;5195;48.562;9.192;2023-07-24T05:14:31;23.10;44.70
10300;DHT22;5195;48.562;9.192;2023-07-24T05:16:57;23.30;44.20
10300;DHT22;5195;48.562;9.192;2023-07-24T05:19:22;23.10;44.90
10300;DHT22;5195;48.562;9.192;2023-07-24T05:21:48;23.10;44.50
10300;DHT22;5195;48.562;9.192;2023-07-24T05:24:14;23.40;44.30
10300;DHT22;5195;48.562;9.192;2023-07-24T05:26:40;23.30;44.30
10300;DHT22;5195;48.562;9.192;2023-07-24T05:29:06;23.10;44.60
10300;DHT22;5195;48.562;9.192;2023-07-24T05:31:33;22.90;44.80
10300;DHT22;5195;48.562;9.192;2023-07-24T05:33:58;22.80;45.10
10300;DHT22;5195;48.562;9.192;2023-07-24T05:36:24;22.70;45.40
10300;DHT22;5195;48.562;9.192;2023-07-24T05:38:51;22.60;45.60
10300;DHT22;5195;48.562;9.192;2023-07-24T05:41:15;22.60;45.80
10300;DHT22;5195;48.562;9.192;2023-07-24T05:43:41;22.50;45.80
10300;DHT22;5195;48.562;9.192;2023-07-24T05:46:06;22.80;46.00
10300;DHT22;5195;48.562;9.192;2023-07-24T05:48:32;23.20;45.70
10300;DHT22;5195;48.562;9.192;2023-07-24T05:50:57;23.40;45.00
10300;DHT22;5195;48.562;9.192;2023-07-24T05:53:23;23.30;45.00
10300;DHT22;5195;48.562;9.192;2023-07-24T05:55:55;23.30;45.50
10300;DHT22;5195;48.562;9.192;2023-07-24T05:58:14;23.20;45.50
10300;DHT22;5195;48.562;9.192;2023-07-24T06:00:40;23.20;45.80
10300;DHT22;5195;48.562;9.192;2023-07-24T06:03:05;23.00;45.50
10300;DHT22;5195;48.562;9.192;2023-07-24T06:05:31;23.10;46.50
10300;DHT22;5195;48.562;9.192;2023-07-24T06:07:56;22.90;46.20
10300;DHT22;5195;48.562;9.192;2023-07-24T06:10:22;23.00;46.40
10300;DHT22;5195;48.562;9.192;2023-07-24T06:12:48;23.20;45.80
10300;DHT22;5195;48.562;9.192;2023-07-24T06:15:13;23.30;45.40
10300;DHT22;5195;48.562;9.192;2023-07-24T06:17:39;23.20;45.40
10300;DHT22;5195;48.562;9.192;2023-07-24T06:20:05;23.20;45.60
10300;DHT22;5195;48.562;9.192;2023-07-24T06:22:30;23.30;45.20
10300;DHT22;5195;48.562;9.192;2023-07-24T06:24:56;23.20;45.20
10300;DHT22;5195;48.562;9.192;2023-07-24T06:27:21;22.90;45.40
10300;DHT22;5195;48.562;9.192;2023-07-24T06:29:47;22.70;45.80
10300;DHT22;5195;48.562;9.192;2023-07-24T06:32:12;22.50;45.90
10300;DHT22;5195;48.562;9.192;2023-07-24T06:34:38;22.70;46.40
10300;DHT22;5195;48.562;9.192;2023-07-24T06:37:04;23.10;45.60
10300;DHT22;5195;48.562;9.192;2023-07-24T06:39:29;23.00;45.30
10300;DHT22;5195;48.562;9.192;2023-07-24T06:41:55;23.20;45.50
10300;DHT22;5195;48.562;9.192;2023-07-24T06:44:20;23.10;45.40
10300;DHT22;5195;48.562;9.192;2023-07-24T06:46:46;22.90;45.50
10300;DHT22;5195;48.562;9.192;2023-07-24T06:49:11;22.70;45.70
10300;DHT22;5195;48.562;9.192;2023-07-24T06:51:37;22.60;46.10
10300;DHT22;5195;48.562;9.192;2023-07-24T06:54:02;22.50;46.30
10300;DHT22;5195;48.562;9.192;2023-07-24T06:56:28;22.50;46.50
10300;DHT22;5195;48.562;9.192;2023-07-24T06:58:54;22.50;46.60
10300;DHT22;5195;48.562;9.192;2023-07-24T07:01:19;22.50;46.60
10300;DHT22;5195;48.562;9.192;2023-07-24T07:03:45;22.90;46.60
10300;DHT22;5195;48.562;9.192;2023-07-24T07:06:10;23.40;46.30
10300;DHT22;5195;48.562;9.192;2023-07-24T07:08:36;23.90;45.60
10300;DHT22;5195;48.562;9.192;2023-07-24T07:11:02;24.20;44.80
10300;DHT22;5195;48.562;9.192;2023-07-24T07:13:27;24.40;44.10
10300;DHT22;5195;48.562;9.192;2023-07-24T07:15:53;24.50;44.00
10300;DHT22;5195;48.562;9.192;2023-07-24T07:18:18;24.40;44.20
10300;DHT22;5195;48.562;9.192;2023-07-24T07:20:50;24.10;44.50
10300;DHT22;5195;48.562;9.192;2023-07-24T07:23:12;24.20;45.00
10300;DHT22;5195;48.562;9.192;2023-07-24T07:25:38;24.20;45.00
10300;DHT22;5195;48.562;9.192;2023-07-24T07:28:04;24.50;45.40
10300;DHT22;5195;48.562;9.192;2023-07-24T07:30:29;24.60;45.20
10300;DHT22;5195;48.562;9.192;2023-07-24T07:32:55;24.80;45.20
10300;DHT22;5195;48.562;9.192;2023-07-24T07:35:20;24.80;45.00
10300;DHT22;5195;48.562;9.192;2023-07-24T07:37:46;25.20;44.80
10300;DHT22;5195;48.562;9.192;2023-07-24T07:40:12;25.80;43.50
10300;DHT22;5195;48.562;9.192;2023-07-24T07:42:37;26.30;42.90
10300;DHT22;5195;48.562;9.192;2023-07-24T07:45:03;26.30;42.60
10300;DHT22;5195;48.562;9.192;2023-07-24T07:47:28;26.40;42.40
10300;DHT22;5195;48.562;9.192;2023-07-24T07:49:54;26.30;42.40
10300;DHT22;5195;48.562;9.192;2023-07-24T07:52:20;26.30;42.70
10300;DHT22;5195;48.562;9.192;2023-07-24T07:54:46;26.50;42.40
10300;DHT22;5195;48.562;9.192;2023-07-24T07:57:11;26.30;42.30
10300;DHT22;5195;48.562;9.192;2023-07-24T07:59:36;26.20;43.10
10300;DHT22;5195;48.562;9.192;2023-07-24T08:02:02;26.30;43.20
10300;DHT22;5195;48.562;9.192;2023-07-24T08:04:28;26.30;43.10
10300;DHT22;5195;48.562;9.192;2023-07-24T08:06:53;26.00;43.10
10300;DHT22;5195;48.562;9.192;2023-07-24T08:09:20;25.90;43.80
10300;DHT22;5195;48.562;9.192;2023-07-24T08:11:47;25.70;44.00
10300;DHT22;5195;48.562;9.192;2023-07-24T08:14:12;25.40;44.80
10300;DHT22;5195;48.562;9.192;2023-07-24T08:16:38;25.10;45.70
10300;DHT22;5195;48.562;9.192;2023-07-24T08:19:04;25.20;46.00
10300;DHT22;5195;48.562;9.192;2023-07-24T08:21:29;25.50;45.80
10300;DHT22;5195;48.562;9.192;2023-07-24T08:23:55;25.80;44.60
10300;DHT22;5195;48.562;9.192;2023-07-24T08:26:20;26.00;44.20
10300;DHT22;5195;48.562;9.192;2023-07-24T08:28:46;25.90;44.10
10300;DHT22;5195;48.562;9.192;2023-07-24T08:31:12;25.90;44.40
10300;DHT22;5195;48.562;9.192;2023-07-24T08:33:38;26.00;44.30
10300;DHT22;5195;48.562;9.192;2023-07-24T08:36:07;25.80;44.20
10300;DHT22;5195;48.562;9.192;2023-07-24T08:38:35;25.50;44.60
10300;DHT22;5195;48.562;9.192;2023-07-24T08:41:02;25.20;45.00
10300;DHT22;5195;48.562;9.192;2023-07-24T08:43:27;25.00;45.70
10300;DHT22;5195;48.562;9.192;2023-07-24T08:45:52;24.80;46.00
10300;DHT22;5195;48.562;9.192;2023-07-24T08:48:18;24.70;46.20
10300;DHT22;5195;48.562;9.192;2023-07-24T08:50:44;24.60;46.60
10300;DHT22;5195;48.562;9.192;2023-07-24T08:53:09;24.50;46.80
10300;DHT22;5195;48.562;9.192;2023-07-24T08:55:34;24.50;47.10
10300;DHT22;5195;48.562;9.192;2023-07-24T08:58:00;24.80;48.50
10300;DHT22;5195;48.562;9.192;2023-07-24T09:00:25;24.80;47.90
10300;DHT22;5195;48.562;9.192;2023-07-24T09:02:51;24.70;48.00
10300;DHT22;5195;48.562;9.192;2023-07-24T09:05:17;24.60;48.20
10300;DHT22;5195;48.562;9.192;2023-07-24T09:07:42;24.80;49.40
10300;DHT22;5195;48.562;9.192;2023-07-24T09:10:08;25.00;48.80
10300;DHT22;5195;48.562;9.192;2023-07-24T09:12:34;25.20;49.10
10300;DHT22;5195;48.562;9.192;2023-07-24T09:15:06;25.60;47.70
10300;DHT22;5195;48.562;9.192;2023-07-24T09:17:31;25.90;46.80
10300;DHT22;5195;48.562;9.192;2023-07-24T09:19:57;25.90;46.10
10300;DHT22;5195;48.562;9.192;2023-07-24T09:22:22;25.70;46.30
10300;DHT22;5195;48.562;9.192;2023-07-24T09:24:55;25.80;46.10
10300;DHT22;5195;48.562;9.192;2023-07-24T09:27:20;25.90;45.90
10300;DHT22;5195;48.562;9.192;2023-07-24T09:29:46;25.70;46.10
10300;DHT22;5195;48.562;9.192;2023-07-24T09:32:22;25.50;46.20
10300;DHT22;5195;48.562;9.192;2023-07-24T09:34:44;25.40;46.30
10300;DHT22;5195;48.562;9.192;2023-07-24T09:37:10;25.20;46.80
10300;DHT22;5195;48.562;9.192;2023-07-24T09:39:35;25.00;47.50
10300;DHT22;5195;48.562;9.192;2023-07-24T09:42:04;25.30;51.20
10300;DHT22;5195;48.562;9.192;2023-07-24T09:44:30;25.60;50.00
10300;DHT22;5195;48.562;9.192;2023-07-24T09:46:55;25.80;50.00
10300;DHT22;5195;48.562;9.192;2023-07-24T09:49:21;25.80;49.50
10300;DHT22;5195;48.562;9.192;2023-07-24T09:51:47;25.80;49.40
10300;DHT22;5195;48.562;9.192;2023-07-24T09:54:17;26.00;49.20
10300;DHT22;5195;48.562;9.192;2023-07-24T09:56:41;26.10;48.40
10300;DHT22;5195;48.562;9.192;2023-07-24T09:59:06;26.00;48.40
10300;DHT22;5195;48.562;9.192;2023-07-24T10:01:33;25.90;49.00
10300;DHT22;5195;48.562;9.192;2023-07-24T10:03:58;25.70;48.80
10300;DHT22;5195;48.562;9.192;2023-07-24T10:06:24;25.40;49.20
10300;DHT22;5195;48.562;9.192;2023-07-24T10:08:49;25.00;49.40
10300;DHT22;5195;48.562;9.192;2023-07-24T10:11:15;24.80;49.70
10300;DHT22;5195;48.562;9.192;2023-07-24T10:13:41;24.60;49.90
10300;DHT22;5195;48.562;9.192;2023-07-24T10:16:06;24.30;50.10
10300;DHT22;5195;48.562;9.192;2023-07-24T10:18:32;24.20;50.40
10300;DHT22;5195;48.562;9.192;2023-07-24T10:21:03;24.00;50.60
10300;DHT22;5195;48.562;9.192;2023-07-24T10:23:27;24.20;52.30
10300;DHT22;5195;48.562;9.192;2023-07-24T10:25:53;24.60;52.00
10300;DHT22;5195;48.562;9.192;2023-07-24T10:28:18;24.70;52.00
10300;DHT22;5195;48.562;9.192;2023-07-24T10:30:44;24.60;51.70
10300;DHT22;5195;48.562;9.192;2023-07-24T10:33:17;24.50;52.50
10300;DHT22;5195;48.562;9.192;2023-07-24T10:35:40;24.70;52.60
10300;DHT22;5195;48.562;9.192;2023-07-24T10:38:04;24.50;52.30
10300;DHT22;5195;48.562;9.192;2023-07-24T10:40:30;24.10;52.50
10300;DHT22;5195;48.562;9.192;2023-07-24T10:43:11;24.10;53.60
10300;DHT22;5195;48.562;9.192;2023-07-24T10:45:40;24.30;52.80
10300;DHT22;5195;48.562;9.192;2023-07-24T10:48:05;24.50;52.40
10300;DHT22;5195;48.562;9.192;2023-07-24T10:50:39;24.60;52.70
10300;DHT22;5195;48.562;9.192;2023-07-24T10:53:04;24.30;52.70
10300;DHT22;5195;48.562;9.192;2023-07-24T10:55:29;23.80;53.20
10300;DHT22;5195;48.562;9.192;2023-07-24T10:57:55;23.50;53.90
10300;DHT22;5195;48.562;9.192;2023-07-24T11:00:21;23.60;56.10
10300;DHT22;5195;48.562;9.192;2023-07-24T11:02:46;23.90;55.80
10300;DHT22;5195;48.562;9.192;2023-07-24T11:05:12;24.20;55.50
10300;DHT22;5195;48.562;9.192;2023-07-24T11:07:37;24.00;55.10
10300;DHT22;5195;48.562;9.192;2023-07-24T11:10:03;24.00;56.00
10300;DHT22;5195;48.562;9.192;2023-07-24T11:12:28;24.20;56.00
10300;DHT22;5195;48.562;9.192;2023-07-24T11:14:54;24.00;55.80
10300;DHT22;5195;48.562;9.192;2023-07-24T11:17:20;24.10;57.20
10300;DHT22;5195;48.562;9.192;2023-07-24T11:19:45;24.00;56.90
10300;DHT22;5195;48.562;9.192;2023-07-24T11:22:11;23.70;57.10
10300;DHT22;5195;48.562;9.192;2023-07-24T11:24:46;23.80;58.10
10300;DHT22;5195;48.562;9.192;2023-07-24T11:27:13;24.10;57.70
10300;DHT22;5195;48.562;9.192;2023-07-24T11:29:38;24.00;57.80
10300;DHT22;5195;48.562;9.192;2023-07-24T11:32:03;24.00;57.50
10300;DHT22;5195;48.562;9.192;2023-07-24T11:34:29;23.90;57.40
10300;DHT22;5195;48.562;9.192;2023-07-24T11:36:56;23.90;58.00
10300;DHT22;5195;48.562;9.192;2023-07-24T11:39:22;23.80;58.10
10300;DHT22;5195;48.562;9.192;2023-07-24T11:41:50;23.90;59.60
10300;DHT22;5195;48.562;9.192;2023-07-24T11:44:23;24.40;60.10
10300;DHT22;5195;48.562;9.192;2023-07-24T11:46:42;24.80;59.00
10300;DHT22;5195;48.562;9.192;2023-07-24T11:49:07;25.00;58.90
10300;DHT22;5195;48.562;9.192;2023-07-24T11:51:33;25.20;59.00
10300;DHT22;5195;48.562;9.192;2023-07-24T11:54:11;25.60;58.60
10300;DHT22;5195;48.562;9.192;2023-07-24T11:56:34;25.70;57.60
10300;DHT22;5195;48.562;9.192;2023-07-24T11:59:10;25.60;57.30
10300;DHT22;5195;48.562;9.192;2023-07-24T12:01:35;25.70;57.40
10300;DHT22;5195;48.562;9.192;2023-07-24T12:04:04;25.80;57.50
10300;DHT22;5195;48.562;9.192;2023-07-24T12:06:33;26.00;55.80
10300;DHT22;5195;48.562;9.192;2023-07-24T12:09:03;26.00;55.80
10300;DHT22;5195;48.562;9.192;2023-07-24T12:11:29;25.90;56.40
10300;DHT22;5195;48.562;9.192;2023-07-24T12:13:54;26.20;55.70
10300;DHT22;5195;48.562;9.192;2023-07-24T12:16:20;26.60;55.50
10300;DHT22;5195;48.562;9.192;2023-07-24T12:18:45;27.00;53.90
10300;DHT22;5195;48.562;9.192;2023-07-24T12:21:11;27.00;54.70
10300;DHT22;5195;48.562;9.192;2023-07-24T12:23:36;27.20;52.50
10300;DHT22;5195;48.562;9.192;2023-07-24T12:26:02;27.10;52.60
10300;DHT22;5195;48.562;9.192;2023-07-24T12:28:28;27.00;52.40
10300;DHT22;5195;48.562;9.192;2023-07-24T12:30:53;27.20;51.60
10300;DHT22;5195;48.562;9.192;2023-07-24T12:33:21;27.50;49.90
10300;DHT22;5195;48.562;9.192;2023-07-24T12:35:46;27.70;48.60
10300;DHT22;5195;48.562;9.192;2023-07-24T12:38:12;27.60;49.00
10300;DHT22;5195;48.562;9.192;2023-07-24T12:40:38;27.30;49.40
10300;DHT22;5195;48.562;9.192;2023-07-24T12:43:03;27.40;48.80
10300;DHT22;5195;48.562;9.192;2023-07-24T12:45:29;27.40;48.60
10300;DHT22;5195;48.562;9.192;2023-07-24T12:47:54;27.20;49.00
10300;DHT22;5195;48.562;9.192;2023-07-24T12:50:20;27.40;48.30
10300;DHT22;5195;48.562;9.192;2023-07-24T12:52:46;27.70;48.40
10300;DHT22;5195;48.562;9.192;2023-07-24T12:55:11;27.70;48.40
10300;DHT22;5195;48.562;9.192;2023-07-24T12:57:37;27.80;48.30
10300;DHT22;5195;48.562;9.192;2023-07-24T13:00:03;27.80;48.40
10300;DHT22;5195;48.562;9.192;2023-07-24T13:02:30;27.90;47.40
10300;DHT22;5195;48.562;9.192;2023-07-24T13:04:55;28.20;47.60
10300;DHT22;5195;48.562;9.192;2023-07-24T13:07:21;28.50;46.50
10300;DHT22;5195;48.562;9.192;2023-07-24T13:09:46;28.70;46.30
10300;DHT22;5195;48.562;9.192;2023-07-24T13:12:12;28.80;45.00
10300;DHT22;5195;48.562;9.192;2023-07-24T13:14:38;28.70;45.90
10300;DHT22;5195;48.562;9.192;2023-07-24T13:17:03;28.40;46.50
10300;DHT22;5195;48.562;9.192;2023-07-24T13:19:30;28.40;46.50
10300;DHT22;5195;48.562;9.192;2023-07-24T13:21:56;28.30;46.00
10300;DHT22;5195;48.562;9.192;2023-07-24T13:24:22;28.40;45.30
10300;DHT22;5195;48.562;9.192;2023-07-24T13:26:48;28.50;44.60
10300;DHT22;5195;48.562;9.192;2023-07-24T13:29:14;28.30;44.80
10300;DHT22;5195;48.562;9.192;2023-07-24T13:31:41;28.00;45.10
10300;DHT22;5195;48.562;9.192;2023-07-24T13:34:07;27.70;45.40
10300;DHT22;5195;48.562;9.192;2023-07-24T13:36:33;27.60;44.70
10300;DHT22;5195;48.562;9.192;2023-07-24T13:39:00;27.80;44.60
10300;DHT22;5195;48.562;9.192;2023-07-24T13:41:25;27.90;45.00
10300;DHT22;5195;48.562;9.192;2023-07-24T13:43:52;28.00;44.30
10300;DHT22;5195;48.562;9.192;2023-07-24T13:46:17;27.70;45.00
10300;DHT22;5195;48.562;9.192;2023-07-24T13:48:43;27.60;47.20
10300;DHT22;5195;48.562;9.192;2023-07-24T13:51:09;27.30;47.20
10300;DHT22;5195;48.562;9.192;2023-07-24T13:53:36;27.30;47.60
10300;DHT22;5195;48.562;9.192;2023-07-24T13:56:02;27.00;48.00
10300;DHT22;5195;48.562;9.192;2023-07-24T13:58:27;26.60;48.50
10300;DHT22;5195;48.562;9.192;2023-07-24T14:00:53;26.30;49.30
10300;DHT22;5195;48.562;9.192;2023-07-24T14:03:18;26.40;48.70
10300;DHT22;5195;48.562;9.192;2023-07-24T14:05:44;26.60;49.20
10300;DHT22;5195;48.562;9.192;2023-07-24T14:08:09;26.50;49.10
10300;DHT22;5195;48.562;9.192;2023-07-24T14:14:00;26.40;49.60
10300;DHT22;5195;48.562;9.192;2023-07-24T14:16:26;26.50;49.00
10300;DHT22;5195;48.562;9.192;2023-07-24T14:18:52;26.70;48.50
10300;DHT22;5195;48.562;9.192;2023-07-24T14:21:21;26.50;48.90
10300;DHT22;5195;48.562;9.192;2023-07-24T14:23:47;26.40;48.90
10300;DHT22;5195;48.562;9.192;2023-07-24T14:26:13;26.20;48.90
10300;DHT22;5195;48.562;9.192;2023-07-24T14:28:38;26.20;47.80
10300;DHT22;5195;48.562;9.192;2023-07-24T14:31:04;26.30;47.20
10300;DHT22;5195;48.562;9.192;2023-07-24T14:33:29;26.40;47.00
10300;DHT22;5195;48.562;9.192;2023-07-24T14:35:56;26.60;46.90
10300;DHT22;5195;48.562;9.192;2023-07-24T14:38:21;26.60;46.90
10300;DHT22;5195;48.562;9.192;2023-07-24T14:40:48;26.40;47.30
10300;DHT22;5195;48.562;9.192;2023-07-24T14:43:14;26.10;48.00
10300;DHT22;5195;48.562;9.192;2023-07-24T14:45:39;26.20;48.10
10300;DHT22;5195;48.562;9.192;2023-07-24T14:48:05;26.10;48.20
10300;DHT22;5195;48.562;9.192;2023-07-24T14:50:31;26.20;48.40
10300;DHT22;5195;48.562;9.192;2023-07-24T14:52:56;26.10;48.30
10300;DHT22;5195;48.562;9.192;2023-07-24T14:55:22;26.20;48.40
10300;DHT22;5195;48.562;9.192;2023-07-24T14:57:48;26.40;48.00
10300;DHT22;5195;48.562;9.192;2023-07-24T15:00:13;26.30;48.10
10300;DHT22;5195;48.562;9.192;2023-07-24T15:02:39;26.00;48.50
10300;DHT22;5195;48.562;9.192;2023-07-24T15:05:05;26.10;48.30
10300;DHT22;5195;48.562;9.192;2023-07-24T15:07:30;26.00;48.30
10300;DHT22;5195;48.562;9.192;2023-07-24T15:09:56;25.70;48.70
10300;DHT22;5195;48.562;9.192;2023-07-24T15:12:21;25.40;49.10
10300;DHT22;5195;48.562;9.192;2023-07-24T15:14:47;25.40;49.50
10300;DHT22;5195;48.562;9.192;2023-07-24T15:17:13;25.60;49.30
10300;DHT22;5195;48.562;9.192;2023-07-24T15:19:38;25.80;48.90
10300;DHT22;5195;48.562;9.192;2023-07-24T15:22:04;26.00;48.80
10300;DHT22;5195;48.562;9.192;2023-07-24T15:24:29;25.80;48.80
10300;DHT22;5195;48.562;9.192;2023-07-24T15:26:55;25.60;49.30
10300;DHT22;5195;48.562;9.192;2023-07-24T15:29:21;25.70;49.40
10300;DHT22;5195;48.562;9.192;2023-07-24T15:31:46;25.90;49.20
10300;DHT22;5195;48.562;9.192;2023-07-24T15:34:12;25.80;49.20
10300;DHT22;5195;48.562;9.192;2023-07-24T15:36:40;25.50;50.30
10300;DHT22;5195;48.562;9.192;2023-07-24T15:39:06;25.60;50.00
10300;DHT22;5195;48.562;9.192;2023-07-24T15:41:32;25.60;49.80